sensor_id;sensor_type;location;lat;lon;timestamp;pressure;altitude;pressure_sealevel;temperature;humidity
3464;BME280;3551;41.578;24.706;2022-11-03T00:01:53;91737.66;;;10.91;61.60
3464;BME280;3551;41.578;24.706;2022-11-03T00:04:20;91738.84;;;11.00;62.02
3464;BME280;3551;41.578;24.706;2022-11-03T00:06:48;91736.16;;;11.07;61.86
3464;BME280;3551;41.578;24.706;2022-11-03T00:09:16;91743.78;;;10.91;62.18
3464;BME280;3551;41.578;24.706;2022-11-03T00:11:43;91740.34;;;10.91;61.89
3464;BME280;3551;41.578;24.706;2022-11-03T00:14:10;91745.25;;;10.67;62.90
3464;BME280;3551;41.578;24.706;2022-11-03T00:16:39;91742.97;;;10.80;61.96
3464;BME280;3551;41.578;24.706;2022-11-03T00:19:07;91742.63;;;10.82;62.30
3464;BME280;3551;41.578;24.706;2022-11-03T00:21:34;91740.31;;;10.84;62.28
3464;BME280;3551;41.578;24.706;2022-11-03T00:24:01;91736.09;;;10.72;62.37
3464;BME280;3551;41.578;24.706;2022-11-03T00:26:29;91749.84;;;10.78;62.01
3464;BME280;3551;41.578;24.706;2022-11-03T00:28:56;91736.09;;;10.72;62.19
3464;BME280;3551;41.578;24.706;2022-11-03T00:31:25;91741.44;;;10.72;62.45
3464;BME280;3551;41.578;24.706;2022-11-03T00:33:52;91741.06;;;10.73;62.43
3464;BME280;3551;41.578;24.706;2022-11-03T00:36:22;91743.34;;;10.75;62.38
3464;BME280;3551;41.578;24.706;2022-11-03T00:38:49;91736.44;;;10.63;62.72
3464;BME280;3551;41.578;24.706;2022-11-03T00:41:16;91741.41;;;10.68;62.22
3464;BME280;3551;41.578;24.706;2022-11-03T00:43:44;91736.09;;;10.65;62.27
3464;BME280;3551;41.578;24.706;2022-11-03T00:46:11;91738.34;;;10.63;62.23
3464;BME280;3551;41.578;24.706;2022-11-03T00:48:38;91732.66;;;10.68;62.51
3464;BME280;3551;41.578;24.706;2022-11-03T00:51:06;91737.63;;;10.73;62.57
3464;BME280;3551;41.578;24.706;2022-11-03T00:53:35;91735.28;;;10.61;63.18
3464;BME280;3551;41.578;24.706;2022-11-03T00:56:02;91738.38;;;10.59;62.71
3464;BME280;3551;41.578;24.706;2022-11-03T00:58:29;91733.66;;;10.32;63.99
3464;BME280;3551;41.578;24.706;2022-11-03T01:00:59;91735.94;;;10.30;63.42
3464;BME280;3551;41.578;24.706;2022-11-03T01:03:26;91732.50;;;10.29;63.73
3464;BME280;3551;41.578;24.706;2022-11-03T01:05:53;91730.66;;;10.51;63.27
3464;BME280;3551;41.578;24.706;2022-11-03T01:08:39;91732.50;;;10.29;64.06
3464;BME280;3551;41.578;24.706;2022-11-03T01:11:06;91734.47;;;10.43;63.51
3464;BME280;3551;41.578;24.706;2022-11-03T01:13:50;91734.50;;;10.50;63.03
3464;BME280;3551;41.578;24.706;2022-11-03T01:16:17;91726.03;;;10.30;63.58
3464;BME280;3551;41.578;24.706;2022-11-03T01:18:44;91727.19;;;10.40;63.04
3464;BME280;3551;41.578;24.706;2022-11-03T01:21:10;91720.69;;;10.37;63.64
3464;BME280;3551;41.578;24.706;2022-11-03T01:23:39;91716.72;;;10.10;64.30
3464;BME280;3551;41.578;24.706;2022-11-03T01:26:06;91719.13;;;10.29;63.75
3464;BME280;3551;41.578;24.706;2022-11-03T01:28:33;91721.44;;;10.34;63.65
3464;BME280;3551;41.578;24.706;2022-11-03T01:31:03;91729.50;;;10.48;63.30
3464;BME280;3551;41.578;24.706;2022-11-03T01:33:30;91723.34;;;10.34;63.63
3464;BME280;3551;41.578;24.706;2022-11-03T01:35:57;91732.09;;;10.24;63.73
3464;BME280;3551;41.578;24.706;2022-11-03T01:38:23;91725.59;;;10.25;64.05
3464;BME280;3551;41.578;24.706;2022-11-03T01:40:52;91720.94;;;10.11;65.04
3464;BME280;3551;41.578;24.706;2022-11-03T01:43:20;91717.97;;;10.23;64.50
3464;BME280;3551;41.578;24.706;2022-11-03T01:45:47;91716.81;;;10.21;64.11
3464;BME280;3551;41.578;24.706;2022-11-03T01:48:15;91727.06;;;10.11;64.23
3464;BME280;3551;41.578;24.706;2022-11-03T01:50:43;91719.38;;;10.10;64.59
3464;BME280;3551;41.578;24.706;2022-11-03T01:53:10;91717.72;;;9.84;65.29
3464;BME280;3551;41.578;24.706;2022-11-03T01:55:38;91720.88;;;9.97;64.87
3464;BME280;3551;41.578;24.706;2022-11-03T01:58:07;91718.66;;;10.09;64.42
3464;BME280;3551;41.578;24.706;2022-11-03T02:00:36;91720.66;;;10.27;64.22
3464;BME280;3551;41.578;24.706;2022-11-03T02:03:03;91717.19;;;10.15;64.35
3464;BME280;3551;41.578;24.706;2022-11-03T02:05:31;91716.34;;;10.11;64.55
3464;BME280;3551;41.578;24.706;2022-11-03T02:07:59;91715.22;;;10.09;64.60
3464;BME280;3551;41.578;24.706;2022-11-03T02:10:27;91716.69;;;10.03;64.78
3464;BME280;3551;41.578;24.706;2022-11-03T02:12:54;91714.06;;;10.06;64.61
3464;BME280;3551;41.578;24.706;2022-11-03T02:15:22;91715.22;;;10.09;64.94
3464;BME280;3551;41.578;24.706;2022-11-03T02:17:50;91708.34;;;10.11;64.48
3464;BME280;3551;41.578;24.706;2022-11-03T02:20:17;91712.56;;;10.12;64.12
3464;BME280;3551;41.578;24.706;2022-11-03T02:25:33;91713.69;;;10.11;63.98
3464;BME280;3551;41.578;24.706;2022-11-03T02:28:00;91711.78;;;10.12;64.04
3464;BME280;3551;41.578;24.706;2022-11-03T02:30:28;91716.34;;;10.11;64.46
3464;BME280;3551;41.578;24.706;2022-11-03T02:32:58;91708.41;;;10.15;64.59
3464;BME280;3551;41.578;24.706;2022-11-03T02:35:30;91708.41;;;10.15;64.86
3464;BME280;3551;41.578;24.706;2022-11-03T02:37:59;91713.22;;;9.99;65.17
3464;BME280;3551;41.578;24.706;2022-11-03T02:40:28;91708.22;;;9.90;65.39
3464;BME280;3551;41.578;24.706;2022-11-03T02:42:58;91720.88;;;10.00;65.38
3464;BME280;3551;41.578;24.706;2022-11-03T02:45:26;91720.84;;;9.93;65.45
3464;BME280;3551;41.578;24.706;2022-11-03T02:47:54;91715.91;;;9.99;65.55
3464;BME280;3551;41.578;24.706;2022-11-03T02:50:25;91712.84;;;9.97;65.41
3464;BME280;3551;41.578;24.706;2022-11-03T02:52:52;91715.84;;;9.88;65.98
3464;BME280;3551;41.578;24.706;2022-11-03T02:55:20;91714.78;;;10.00;65.49
3464;BME280;3551;41.578;24.706;2022-11-03T02:57:49;91716.34;;;10.11;65.62
3464;BME280;3551;41.578;24.706;2022-11-03T03:00:20;91711.81;;;10.19;65.51
3464;BME280;3551;41.578;24.706;2022-11-03T03:02:49;91716.44;;;10.19;65.61
3464;BME280;3551;41.578;24.706;2022-11-03T03:05:18;91714.88;;;10.14;65.74
3464;BME280;3551;41.578;24.706;2022-11-03T03:07:47;91709.88;;;10.09;65.96
3464;BME280;3551;41.578;24.706;2022-11-03T03:10:16;91705.22;;;9.99;66.54
3464;BME280;3551;41.578;24.706;2022-11-03T03:12:45;91711.75;;;10.05;66.56
3464;BME280;3551;41.578;24.706;2022-11-03T03:15:13;91705.34;;;10.16;66.40
3464;BME280;3551;41.578;24.706;2022-11-03T03:17:46;91711.06;;;10.15;66.33
3464;BME280;3551;41.578;24.706;2022-11-03T03:20:17;91706.88;;;10.25;65.89
3464;BME280;3551;41.578;24.706;2022-11-03T03:22:46;91706.97;;;10.39;65.62
3464;BME280;3551;41.578;24.706;2022-11-03T03:25:17;91707.53;;;10.00;66.95
3464;BME280;3551;41.578;24.706;2022-11-03T03:27:45;91704.13;;;10.10;66.66
3464;BME280;3551;41.578;24.706;2022-11-03T03:30:14;91708.81;;;10.28;66.15
3464;BME280;3551;41.578;24.706;2022-11-03T03:32:43;91700.38;;;10.22;66.05
3464;BME280;3551;41.578;24.706;2022-11-03T03:35:13;91706.94;;;10.32;65.70
3464;BME280;3551;41.578;24.706;2022-11-03T03:37:43;91704.97;;;10.25;66.31
3464;BME280;3551;41.578;24.706;2022-11-03T03:40:10;91707.72;;;10.39;65.84
3464;BME280;3551;41.578;24.706;2022-11-03T03:42:40;91702.00;;;10.41;66.43
3464;BME280;3551;41.578;24.706;2022-11-03T03:45:08;91693.91;;;10.23;66.98
3464;BME280;3551;41.578;24.706;2022-11-03T03:47:35;91698.50;;;10.26;66.80
3464;BME280;3551;41.578;24.706;2022-11-03T03:50:02;91694.72;;;10.34;66.28
3464;BME280;3551;41.578;24.706;2022-11-03T03:52:32;91696.63;;;10.34;66.68
3464;BME280;3551;41.578;24.706;2022-11-03T03:55:00;91705.44;;;10.41;66.16
3464;BME280;3551;41.578;24.706;2022-11-03T03:57:27;91693.22;;;10.44;65.97
3464;BME280;3551;41.578;24.706;2022-11-03T03:59:56;91695.91;;;10.44;65.68
3464;BME280;3551;41.578;24.706;2022-11-03T04:02:23;91702.78;;;10.48;65.78
3464;BME280;3551;41.578;24.706;2022-11-03T04:04:49;91699.75;;;10.50;65.79
3464;BME280;3551;41.578;24.706;2022-11-03T04:07:16;91701.63;;;10.49;65.81
3464;BME280;3551;41.578;24.706;2022-11-03T04:10:02;91703.53;;;10.49;66.03
3464;BME280;3551;41.578;24.706;2022-11-03T04:12:29;91698.22;;;10.63;65.49
3464;BME280;3551;41.578;24.706;2022-11-03T04:15:13;91699.72;;;10.46;65.92
3464;BME280;3551;41.578;24.706;2022-11-03T04:17:57;91689.81;;;10.50;66.32
3464;BME280;3551;41.578;24.706;2022-11-03T04:20:41;91693.25;;;10.47;66.35
3464;BME280;3551;41.578;24.706;2022-11-03T04:23:24;91688.66;;;10.55;65.98
3464;BME280;3551;41.578;24.706;2022-11-03T04:25:53;91693.22;;;10.51;66.20
3464;BME280;3551;41.578;24.706;2022-11-03T04:28:20;91689.41;;;10.48;66.20
3464;BME280;3551;41.578;24.706;2022-11-03T04:30:48;91687.53;;;10.63;65.69
3464;BME280;3551;41.578;24.706;2022-11-03T04:33:15;91689.81;;;10.50;66.01
3464;BME280;3551;41.578;24.706;2022-11-03T04:35:42;91694.41;;;10.53;66.08
3464;BME280;3551;41.578;24.706;2022-11-03T04:38:17;91689.06;;;10.60;66.04
3464;BME280;3551;41.578;24.706;2022-11-03T04:40:46;91685.63;;;10.60;66.24
3464;BME280;3551;41.578;24.706;2022-11-03T04:43:16;91699.00;;;10.67;66.02
3464;BME280;3551;41.578;24.706;2022-11-03T04:45:43;91685.25;;;10.61;66.15
3464;BME280;3551;41.578;24.706;2022-11-03T04:48:11;91690.22;;;10.59;66.14
3464;BME280;3551;41.578;24.706;2022-11-03T04:50:38;91693.31;;;10.76;65.80
3464;BME280;3551;41.578;24.706;2022-11-03T04:53:08;91691.75;;;10.67;66.01
3464;BME280;3551;41.578;24.706;2022-11-03T04:55:35;91691.75;;;10.64;66.15
3464;BME280;3551;41.578;24.706;2022-11-03T04:58:05;91692.88;;;10.63;66.24
3464;BME280;3551;41.578;24.706;2022-11-03T05:00:37;91693.69;;;10.70;66.04
3464;BME280;3551;41.578;24.706;2022-11-03T05:03:07;91696.34;;;10.74;65.97
3464;BME280;3551;41.578;24.706;2022-11-03T05:05:36;91695.19;;;10.71;66.17
3464;BME280;3551;41.578;24.706;2022-11-03T05:08:04;91698.63;;;10.68;66.06
3464;BME280;3551;41.578;24.706;2022-11-03T05:10:34;91694.84;;;10.77;65.85
3464;BME280;3551;41.578;24.706;2022-11-03T05:13:00;91695.63;;;10.88;65.57
3464;BME280;3551;41.578;24.706;2022-11-03T05:15:28;91691.41;;;10.80;65.91
3464;BME280;3551;41.578;24.706;2022-11-03T05:17:57;91701.72;;;10.81;65.82
3464;BME280;3551;41.578;24.706;2022-11-03T05:20:29;91699.41;;;10.83;66.19
3464;BME280;3551;41.578;24.706;2022-11-03T05:22:56;91697.16;;;10.96;65.83
3464;BME280;3551;41.578;24.706;2022-11-03T05:28:10;91707.50;;;10.97;65.87
3464;BME280;3551;41.578;24.706;2022-11-03T05:30:40;91710.94;;;11.08;66.70
3464;BME280;3551;41.578;24.706;2022-11-03T05:33:12;91706.34;;;11.16;66.21
3464;BME280;3551;41.578;24.706;2022-11-03T05:35:41;91714.78;;;11.14;66.12
3464;BME280;3551;41.578;24.706;2022-11-03T05:38:09;91712.47;;;11.16;65.90
3464;BME280;3551;41.578;24.706;2022-11-03T05:40:37;91720.88;;;11.18;66.08
3464;BME280;3551;41.578;24.706;2022-11-03T05:43:07;91722.41;;;11.19;66.23
3464;BME280;3551;41.578;24.706;2022-11-03T05:45:34;91726.63;;;11.20;66.32
3464;BME280;3551;41.578;24.706;2022-11-03T05:48:01;91730.47;;;11.34;66.61
3464;BME280;3551;41.578;24.706;2022-11-03T05:50:32;91731.59;;;11.32;67.01
3464;BME280;3551;41.578;24.706;2022-11-03T05:53:03;91734.28;;;11.36;66.87
3464;BME280;3551;41.578;24.706;2022-11-03T05:55:33;91739.25;;;11.34;66.57
3464;BME280;3551;41.578;24.706;2022-11-03T05:58:03;91737.34;;;11.35;66.29
3464;BME280;3551;41.578;24.706;2022-11-03T06:00:38;91740.41;;;11.51;66.07
3464;BME280;3551;41.578;24.706;2022-11-03T06:03:05;91730.47;;;11.55;65.67
3464;BME280;3551;41.578;24.706;2022-11-03T06:05:33;91740.41;;;11.47;66.05
3464;BME280;3551;41.578;24.706;2022-11-03T06:08:02;91740.03;;;11.45;66.08
3464;BME280;3551;41.578;24.706;2022-11-03T06:10:30;91741.56;;;11.50;66.35
3464;BME280;3551;41.578;24.706;2022-11-03T06:12:58;91736.19;;;11.57;66.63
3464;BME280;3551;41.578;24.706;2022-11-03T06:15:28;91751.16;;;11.72;67.32
3464;BME280;3551;41.578;24.706;2022-11-03T06:17:55;91753.41;;;11.66;66.02
3464;BME280;3551;41.578;24.706;2022-11-03T06:20:22;91751.91;;;11.55;66.33
3464;BME280;3551;41.578;24.706;2022-11-03T06:22:51;91754.97;;;11.74;67.62
3464;BME280;3551;41.578;24.706;2022-11-03T06:25:22;91754.56;;;11.79;67.69
3464;BME280;3551;41.578;24.706;2022-11-03T06:27:49;91755.34;;;11.80;67.19
3464;BME280;3551;41.578;24.706;2022-11-03T06:30:19;91751.50;;;11.88;66.77
3464;BME280;3551;41.578;24.706;2022-11-03T06:32:47;91762.22;;;12.02;66.28
3464;BME280;3551;41.578;24.706;2022-11-03T06:35:13;91761.81;;;12.07;66.31
3464;BME280;3551;41.578;24.706;2022-11-03T06:37:40;91765.66;;;12.13;64.90
3464;BME280;3551;41.578;24.706;2022-11-03T06:42:52;91759.47;;;12.23;65.05
3464;BME280;3551;41.578;24.706;2022-11-03T06:45:20;91769.06;;;12.31;64.96
3464;BME280;3551;41.578;24.706;2022-11-03T06:47:47;91770.56;;;12.39;64.35
3464;BME280;3551;41.578;24.706;2022-11-03T06:50:18;91760.19;;;12.45;63.43
3464;BME280;3551;41.578;24.706;2022-11-03T06:52:47;91760.56;;;12.54;63.55
3464;BME280;3551;41.578;24.706;2022-11-03T06:55:20;91757.41;;;12.70;62.31
3464;BME280;3551;41.578;24.706;2022-11-03T06:57:47;91764.69;;;12.76;62.48
3464;BME280;3551;41.578;24.706;2022-11-03T07:00:22;91765.00;;;12.89;62.58
3464;BME280;3551;41.578;24.706;2022-11-03T07:02:52;91771.50;;;12.98;62.62
3464;BME280;3551;41.578;24.706;2022-11-03T07:05:21;91775.31;;;13.05;63.39
3464;BME280;3551;41.578;24.706;2022-11-03T07:07:49;91764.94;;;13.07;62.92
3464;BME280;3551;41.578;24.706;2022-11-03T07:10:26;91768.00;;;13.09;62.53
3464;BME280;3551;41.578;24.706;2022-11-03T07:13:05;91764.56;;;13.08;62.96
3464;BME280;3551;41.578;24.706;2022-11-03T07:15:37;91775.28;;;13.08;62.47
3464;BME280;3551;41.578;24.706;2022-11-03T07:18:09;91764.53;;;13.12;61.04
3464;BME280;3551;41.578;24.706;2022-11-03T07:20:39;91757.59;;;13.18;60.02
3464;BME280;3551;41.578;24.706;2022-11-03T07:23:06;91763.72;;;13.22;58.25
3464;BME280;3551;41.578;24.706;2022-11-03T07:25:38;91760.59;;;13.30;57.73
3464;BME280;3551;41.578;24.706;2022-11-03T07:28:07;91756.28;;;13.40;57.75
3464;BME280;3551;41.578;24.706;2022-11-03T07:30:34;91751.25;;;13.49;58.09
3464;BME280;3551;41.578;24.706;2022-11-03T07:33:08;91753.13;;;13.56;59.43
3464;BME280;3551;41.578;24.706;2022-11-03T07:35:36;91749.97;;;13.68;60.14
3464;BME280;3551;41.578;24.706;2022-11-03T07:38:08;91754.84;;;13.83;60.71
3464;BME280;3551;41.578;24.706;2022-11-03T07:40:36;91746.69;;;13.90;60.01
3464;BME280;3551;41.578;24.706;2022-11-03T07:43:08;91747.50;;;13.87;59.84
3464;BME280;3551;41.578;24.706;2022-11-03T07:45:37;91749.28;;;14.01;57.78
3464;BME280;3551;41.578;24.706;2022-11-03T07:48:19;91756.03;;;14.20;56.83
3464;BME280;3551;41.578;24.706;2022-11-03T07:50:46;91751.00;;;14.22;56.49
3464;BME280;3551;41.578;24.706;2022-11-03T07:53:18;91748.63;;;14.34;55.31
3464;BME280;3551;41.578;24.706;2022-11-03T07:55:45;91741.66;;;14.37;54.86
3464;BME280;3551;41.578;24.706;2022-11-03T07:58:14;91728.06;;;14.51;54.80
3464;BME280;3551;41.578;24.706;2022-11-03T08:00:45;91732.84;;;14.70;53.07
3464;BME280;3551;41.578;24.706;2022-11-03T08:03:15;91733.06;;;14.83;52.21
3464;BME280;3551;41.578;24.706;2022-11-03T08:05:49;91728.00;;;14.88;52.10
3464;BME280;3551;41.578;24.706;2022-11-03T08:08:16;91726.28;;;15.01;51.85
3464;BME280;3551;41.578;24.706;2022-11-03T08:10:42;91728.44;;;15.13;51.16
3464;BME280;3551;41.578;24.706;2022-11-03T08:13:09;91721.00;;;15.21;50.85
3464;BME280;3551;41.578;24.706;2022-11-03T08:15:36;91722.13;;;15.23;50.67
3464;BME280;3551;41.578;24.706;2022-11-03T08:18:03;91715.44;;;15.35;50.58
3464;BME280;3551;41.578;24.706;2022-11-03T08:26:51;91707.81;;;15.80;50.57
3464;BME280;3551;41.578;24.706;2022-11-03T08:29:18;91706.19;;;15.86;50.95
3464;BME280;3551;41.578;24.706;2022-11-03T08:31:47;91700.31;;;15.91;50.61
3464;BME280;3551;41.578;24.706;2022-11-03T08:34:28;91700.78;;;16.09;49.53
3464;BME280;3551;41.578;24.706;2022-11-03T08:37:39;91710.41;;;16.10;47.86
3464;BME280;3551;41.578;24.706;2022-11-03T08:40:27;91703.97;;;16.24;47.91
3464;BME280;3551;41.578;24.706;2022-11-03T08:49:09;91703.00;;;16.77;47.72
3464;BME280;3551;41.578;24.706;2022-11-03T08:51:38;91697.31;;;16.71;47.24
3464;BME280;3551;41.578;24.706;2022-11-03T08:54:13;91696.13;;;16.72;46.32
3464;BME280;3551;41.578;24.706;2022-11-03T08:56:40;91693.56;;;16.85;44.43
3464;BME280;3551;41.578;24.706;2022-11-03T08:59:09;91695.88;;;16.86;44.23
3464;BME280;3551;41.578;24.706;2022-11-03T09:01:35;91690.00;;;17.08;44.02
3464;BME280;3551;41.578;24.706;2022-11-03T09:04:02;91689.25;;;17.07;43.97
3464;BME280;3551;41.578;24.706;2022-11-03T09:06:31;91690.00;;;17.08;43.00
3464;BME280;3551;41.578;24.706;2022-11-03T09:08:59;91686.88;;;17.09;41.90
3464;BME280;3551;41.578;24.706;2022-11-03T09:11:26;91675.94;;;17.32;42.26
3464;BME280;3551;41.578;24.706;2022-11-03T09:13:53;91679.59;;;17.42;41.81
3464;BME280;3551;41.578;24.706;2022-11-03T09:16:40;91677.59;;;17.62;41.18
3464;BME280;3551;41.578;24.706;2022-11-03T09:21:52;91672.44;;;17.84;40.30
3464;BME280;3551;41.578;24.706;2022-11-03T09:46:51;91652.56;;;18.77;36.79
3464;BME280;3551;41.578;24.706;2022-11-03T09:49:18;91643.84;;;18.85;36.47
3464;BME280;3551;41.578;24.706;2022-11-03T09:51:49;91641.34;;;18.91;36.21
3464;BME280;3551;41.578;24.706;2022-11-03T10:14:42;91625.19;;;19.13;36.89
3464;BME280;3551;41.578;24.706;2022-11-03T10:20:28;91619.00;;;19.12;35.72
3464;BME280;3551;41.578;24.706;2022-11-03T10:22:57;91622.06;;;19.27;36.15
3464;BME280;3551;41.578;24.706;2022-11-03T10:25:34;91616.44;;;19.34;35.59
3464;BME280;3551;41.578;24.706;2022-11-03T10:28:12;91606.13;;;19.29;35.31
3464;BME280;3551;41.578;24.706;2022-11-03T10:30:55;91604.50;;;19.31;35.86
3464;BME280;3551;41.578;24.706;2022-11-03T10:33:25;91603.72;;;19.31;36.50
3464;BME280;3551;41.578;24.706;2022-11-03T10:35:57;91599.16;;;19.53;35.49
3464;BME280;3551;41.578;24.706;2022-11-03T10:38:25;91594.59;;;19.75;35.55
3464;BME280;3551;41.578;24.706;2022-11-03T10:43:58;91594.50;;;19.53;34.61
3464;BME280;3551;41.578;24.706;2022-11-03T10:46:28;91586.94;;;19.48;34.91
3464;BME280;3551;41.578;24.706;2022-11-03T10:49:10;91584.53;;;19.38;35.28
3464;BME280;3551;41.578;24.706;2022-11-03T10:51:41;91576.38;;;19.50;35.58
3464;BME280;3551;41.578;24.706;2022-11-03T10:54:09;91583.00;;;19.37;37.16
3464;BME280;3551;41.578;24.706;2022-11-03T10:56:53;91578.69;;;19.01;38.12
3464;BME280;3551;41.578;24.706;2022-11-03T11:00:19;91573.16;;;18.92;36.68
3464;BME280;3551;41.578;24.706;2022-11-03T11:03:04;91567.28;;;18.69;37.30
3464;BME280;3551;41.578;24.706;2022-11-03T11:05:35;91570.84;;;18.66;37.71
3464;BME280;3551;41.578;24.706;2022-11-03T11:08:21;91569.75;;;18.63;36.88
3464;BME280;3551;41.578;24.706;2022-11-03T11:36:18;91549.09;;;17.99;39.36
3464;BME280;3551;41.578;24.706;2022-11-03T11:38:56;91560.69;;;17.99;39.29
3464;BME280;3551;41.578;24.706;2022-11-03T11:47:16;91552.66;;;18.25;38.14
3464;BME280;3551;41.578;24.706;2022-11-03T11:49:44;91552.00;;;18.21;38.70
3464;BME280;3551;41.578;24.706;2022-11-03T11:52:14;91552.88;;;18.18;39.46
3464;BME280;3551;41.578;24.706;2022-11-03T11:54:41;91558.91;;;18.22;38.87
3464;BME280;3551;41.578;24.706;2022-11-03T11:57:12;91546.00;;;18.13;39.63
3464;BME280;3551;41.578;24.706;2022-11-03T11:59:44;91552.88;;;18.18;39.12
3464;BME280;3551;41.578;24.706;2022-11-03T12:02:14;91554.38;;;18.19;39.40
3464;BME280;3551;41.578;24.706;2022-11-03T12:04:45;91559.63;;;18.10;39.58
3464;BME280;3551;41.578;24.706;2022-11-03T12:07:12;91565.53;;;18.21;39.39
3464;BME280;3551;41.578;24.706;2022-11-03T12:09:42;91560.22;;;18.17;39.64
3464;BME280;3551;41.578;24.706;2022-11-03T12:12:09;91555.13;;;18.19;39.36
3464;BME280;3551;41.578;24.706;2022-11-03T12:14:37;91552.09;;;18.17;39.32
3464;BME280;3551;41.578;24.706;2022-11-03T12:22:43;91547.78;;;18.20;39.88
3464;BME280;3551;41.578;24.706;2022-11-03T12:27:53;91547.63;;;18.11;39.97
3464;BME280;3551;41.578;24.706;2022-11-03T12:30:22;91545.00;;;18.07;39.72
3464;BME280;3551;41.578;24.706;2022-11-03T12:32:49;91541.31;;;18.01;39.83
3464;BME280;3551;41.578;24.706;2022-11-03T12:35:17;91541.84;;;17.96;40.27
3464;BME280;3551;41.578;24.706;2022-11-03T12:37:44;91540.00;;;17.93;40.20
3464;BME280;3551;41.578;24.706;2022-11-03T12:40:11;91536.97;;;17.91;40.46
3464;BME280;3551;41.578;24.706;2022-11-03T12:42:38;91537.72;;;17.91;40.39
3464;BME280;3551;41.578;24.706;2022-11-03T12:45:07;91546.25;;;17.90;40.40
3464;BME280;3551;41.578;24.706;2022-11-03T12:47:35;91543.03;;;17.95;40.25
3464;BME280;3551;41.578;24.706;2022-11-03T12:50:02;91542.13;;;17.85;40.49
3464;BME280;3551;41.578;24.706;2022-11-03T12:52:29;91542.56;;;17.84;40.48
3464;BME280;3551;41.578;24.706;2022-11-03T12:54:56;91536.50;;;17.80;40.44
3464;BME280;3551;41.578;24.706;2022-11-03T12:57:23;91548.31;;;17.86;40.49
3464;BME280;3551;41.578;24.706;2022-11-03T12:59:50;91538.69;;;17.85;40.05
3464;BME280;3551;41.578;24.706;2022-11-03T13:02:19;91540.94;;;17.86;40.02
3464;BME280;3551;41.578;24.706;2022-11-03T13:04:46;91537.50;;;17.86;40.45
3464;BME280;3551;41.578;24.706;2022-11-03T13:07:14;91545.16;;;17.87;40.24
3464;BME280;3551;41.578;24.706;2022-11-03T13:09:41;91551.25;;;17.91;40.26
3464;BME280;3551;41.578;24.706;2022-11-03T13:12:10;91551.34;;;17.88;40.44
3464;BME280;3551;41.578;24.706;2022-11-03T13:14:54;91550.34;;;17.82;40.53
3464;BME280;3551;41.578;24.706;2022-11-03T13:17:22;91557.06;;;17.77;40.63
3464;BME280;3551;41.578;24.706;2022-11-03T13:19:49;91562.59;;;17.86;40.34
3464;BME280;3551;41.578;24.706;2022-11-03T13:22:16;91552.50;;;17.74;40.41
3464;BME280;3551;41.578;24.706;2022-11-03T13:24:45;91551.50;;;17.68;40.54
3464;BME280;3551;41.578;24.706;2022-11-03T13:27:12;91553.34;;;17.71;40.72
3464;BME280;3551;41.578;24.706;2022-11-03T13:29:40;91553.59;;;17.61;40.98
3464;BME280;3551;41.578;24.706;2022-11-03T13:32:08;91550.72;;;17.52;40.97
3464;BME280;3551;41.578;24.706;2022-11-03T13:34:37;91558.00;;;17.55;40.86
3464;BME280;3551;41.578;24.706;2022-11-03T13:37:03;91550.31;;;17.53;41.37
3464;BME280;3551;41.578;24.706;2022-11-03T13:39:30;91560.50;;;17.45;41.51
3464;BME280;3551;41.578;24.706;2022-11-03T13:41:57;91557.16;;;17.41;41.51
3464;BME280;3551;41.578;24.706;2022-11-03T13:44:24;91555.03;;;17.49;41.59
3464;BME280;3551;41.578;24.706;2022-11-03T13:46:51;91566.63;;;17.66;41.33
3464;BME280;3551;41.578;24.706;2022-11-03T13:49:18;91564.75;;;17.47;41.85
3464;BME280;3551;41.578;24.706;2022-11-03T13:51:48;91564.06;;;17.42;41.74
3464;BME280;3551;41.578;24.706;2022-11-03T13:54:14;91557.84;;;17.62;41.53
3464;BME280;3551;41.578;24.706;2022-11-03T13:56:41;91556.75;;;17.59;41.43
3464;BME280;3551;41.578;24.706;2022-11-03T13:59:08;91561.47;;;17.39;41.85
3464;BME280;3551;41.578;24.706;2022-11-03T14:01:35;91561.56;;;17.35;41.86
3464;BME280;3551;41.578;24.706;2022-11-03T14:04:02;91559.13;;;17.25;42.33
3464;BME280;3551;41.578;24.706;2022-11-03T14:06:28;91551.50;;;17.20;42.30
3464;BME280;3551;41.578;24.706;2022-11-03T14:08:56;91565.84;;;17.17;42.71
3464;BME280;3551;41.578;24.706;2022-11-03T14:11:23;91563.59;;;17.15;42.50
3464;BME280;3551;41.578;24.706;2022-11-03T14:14:12;91562.97;;;17.08;42.82
3464;BME280;3551;41.578;24.706;2022-11-03T14:16:39;91568.38;;;17.08;43.13
3464;BME280;3551;41.578;24.706;2022-11-03T14:19:06;91565.03;;;17.04;43.09
3464;BME280;3551;41.578;24.706;2022-11-03T14:21:36;91566.97;;;17.03;43.05
3464;BME280;3551;41.578;24.706;2022-11-03T14:24:09;91569.91;;;16.93;43.41
3464;BME280;3551;41.578;24.706;2022-11-03T14:26:37;91566.81;;;17.10;42.86
3464;BME280;3551;41.578;24.706;2022-11-03T14:29:04;91566.38;;;16.96;43.45
3464;BME280;3551;41.578;24.706;2022-11-03T14:31:31;91565.63;;;16.95;43.35
3464;BME280;3551;41.578;24.706;2022-11-03T14:33:58;91568.56;;;17.01;43.46
3464;BME280;3551;41.578;24.706;2022-11-03T14:36:31;91572.88;;;16.98;43.72
3464;BME280;3551;41.578;24.706;2022-11-03T14:38:58;91570.16;;;16.98;43.83
3464;BME280;3551;41.578;24.706;2022-11-03T14:41:27;91566.44;;;17.08;43.83
3464;BME280;3551;41.578;24.706;2022-11-03T14:44:11;91573.97;;;17.01;43.58
3464;BME280;3551;41.578;24.706;2022-11-03T14:46:38;91569.41;;;16.98;43.60
3464;BME280;3551;41.578;24.706;2022-11-03T14:49:05;91577.44;;;17.01;44.18
3464;BME280;3551;41.578;24.706;2022-11-03T14:51:33;91576.75;;;16.97;44.86
3464;BME280;3551;41.578;24.706;2022-11-03T14:54:02;91577.69;;;17.07;44.80
3464;BME280;3551;41.578;24.706;2022-11-03T14:56:30;91575.56;;;16.98;45.53
3464;BME280;3551;41.578;24.706;2022-11-03T14:58:57;91581.38;;;16.97;45.53
3464;BME280;3551;41.578;24.706;2022-11-03T15:01:25;91582.66;;;16.92;45.54
3464;BME280;3551;41.578;24.706;2022-11-03T15:03:52;91579.25;;;16.88;45.48
3464;BME280;3551;41.578;24.706;2022-11-03T15:06:18;91580.19;;;16.81;46.47
3464;BME280;3551;41.578;24.706;2022-11-03T15:08:46;91576.81;;;16.77;46.58
3464;BME280;3551;41.578;24.706;2022-11-03T15:11:12;91583.19;;;16.67;47.51
3464;BME280;3551;41.578;24.706;2022-11-03T15:13:40;91577.97;;;16.60;47.50
3464;BME280;3551;41.578;24.706;2022-11-03T15:16:07;91580.31;;;16.58;48.52
3464;BME280;3551;41.578;24.706;2022-11-03T15:18:34;91578.50;;;16.52;48.49